createdAt,value
2023-01-12T00:01:08.004Z,27.02
2023-01-12T00:03:34.886Z,32.10
2023-01-12T00:06:04.101Z,30.85
2023-01-12T00:08:32.362Z,31.90
2023-01-12T00:10:59.225Z,34.15
2023-01-12T00:13:26.115Z,26.67
2023-01-12T00:16:15.985Z,26.02
2023-01-12T00:18:42.988Z,33.55
2023-01-12T00:21:09.978Z,26.00
2023-01-12T00:23:36.930Z,33.05
2023-01-12T00:26:04.043Z,33.30
2023-01-12T00:28:30.870Z,31.33
2023-01-12T00:31:08.234Z,35.05
2023-01-12T00:33:36.424Z,27.05
2023-01-12T00:36:14.906Z,32.20
2023-01-12T00:38:41.838Z,27.08
2023-01-12T00:41:10.985Z,27.38
2023-01-12T00:43:56.935Z,31.80
2023-01-12T00:46:33.336Z,26.55
2023-01-12T00:49:00.164Z,31.85
2023-01-12T00:51:27.020Z,27.98
2023-01-12T00:53:53.885Z,25.15
2023-01-12T00:56:20.705Z,24.15
2023-01-12T00:58:47.527Z,34.28
2023-01-12T01:01:14.481Z,29.00
2023-01-12T01:03:41.476Z,38.15
2023-01-12T01:06:08.404Z,37.47
2023-01-12T01:08:37.510Z,36.33
2023-01-12T01:11:06.423Z,32.25
2023-01-12T01:13:33.871Z,29.15
2023-01-12T01:16:01.986Z,27.10
2023-01-12T01:18:29.153Z,31.38
2023-01-12T01:20:56.110Z,29.25
2023-01-12T01:23:24.386Z,32.25
2023-01-12T01:25:52.020Z,29.40
2023-01-12T01:28:19.711Z,31.38
2023-01-12T01:30:47.354Z,30.90
2023-01-12T01:33:14.890Z,29.90
2023-01-12T01:35:41.793Z,30.65
2023-01-12T01:38:09.776Z,31.33
2023-01-12T01:40:42.703Z,29.98
2023-01-12T01:43:14.051Z,31.60
2023-01-12T01:45:43.134Z,31.15
2023-01-12T01:48:13.297Z,29.83
2023-01-12T01:50:46.954Z,30.75
2023-01-12T01:53:19.775Z,30.05
2023-01-12T01:55:51.126Z,28.25
2023-01-12T01:58:24.341Z,24.83
2023-01-12T02:00:52.369Z,27.80
2023-01-12T02:03:19.940Z,24.30
2023-01-12T02:05:49.631Z,26.00
2023-01-12T02:08:41.185Z,24.40
2023-01-12T02:11:28.892Z,21.83
2023-01-12T02:14:14.188Z,24.65
2023-01-12T02:16:54.224Z,21.42
2023-01-12T02:19:38.998Z,21.30
2023-01-12T02:22:33.394Z,24.10
2023-01-12T02:25:30.719Z,26.08
2023-01-12T02:28:33.851Z,20.95
2023-01-12T02:31:12.794Z,23.70
2023-01-12T02:33:58.204Z,22.63
2023-01-12T02:36:30.909Z,21.67
2023-01-12T02:39:05.043Z,23.75
2023-01-12T02:42:03.878Z,20.17
2023-01-12T02:45:07.440Z,23.85
2023-01-12T02:47:58.090Z,19.65
2023-01-12T02:50:46.801Z,22.98
2023-01-12T02:53:24.499Z,20.00
2023-01-12T02:55:52.461Z,19.98
2023-01-12T02:58:23.242Z,20.42
2023-01-12T03:00:54.444Z,20.37
2023-01-12T03:03:21.782Z,20.48
2023-01-12T03:05:48.785Z,19.00
2023-01-12T03:08:21.597Z,20.33
2023-01-12T03:11:06.993Z,17.13
2023-01-12T03:13:37.214Z,19.52
2023-01-12T03:16:06.678Z,16.77
2023-01-12T03:18:58.617Z,17.90
2023-01-12T03:24:17.273Z,16.20
2023-01-12T03:26:59.115Z,16.63
2023-01-12T03:31:57.036Z,18.52
2023-01-12T03:34:24.111Z,16.58
2023-01-12T03:37:06.694Z,22.70
2023-01-12T03:39:57.427Z,18.40
2023-01-12T03:42:39.663Z,16.45
2023-01-12T03:45:15.508Z,16.75
2023-01-12T03:47:44.403Z,19.35
2023-01-12T03:50:18.163Z,18.75
2023-01-12T03:52:46.279Z,18.42
2023-01-12T03:55:16.966Z,16.38
2023-01-12T03:57:45.401Z,16.58
2023-01-12T04:00:14.739Z,17.98
2023-01-12T04:02:44.923Z,17.55
2023-01-12T04:05:14.552Z,17.88
2023-01-12T04:07:41.730Z,14.25
2023-01-12T04:10:09.079Z,13.82
2023-01-12T04:12:36.008Z,14.77
2023-01-12T04:15:02.957Z,12.85
2023-01-12T04:17:29.901Z,13.52
2023-01-12T04:19:56.828Z,13.80
2023-01-12T04:22:42.094Z,14.35
2023-01-12T04:25:13.815Z,15.23
2023-01-12T04:30:22.889Z,14.43
2023-01-12T04:32:50.287Z,18.40
2023-01-12T04:35:17.778Z,15.38
2023-01-12T04:37:45.152Z,14.93
2023-01-12T04:40:14.457Z,14.90
2023-01-12T04:43:01.670Z,13.23
2023-01-12T04:45:31.635Z,14.00
2023-01-12T04:48:07.376Z,13.30
2023-01-12T04:50:34.334Z,14.43
2023-01-12T04:53:06.384Z,15.05
2023-01-12T04:55:35.790Z,23.35
2023-01-12T04:58:03.366Z,17.98
2023-01-12T05:00:30.344Z,15.85
2023-01-12T05:03:00.872Z,17.65
2023-01-12T05:05:32.012Z,14.57
2023-01-12T05:08:22.422Z,12.52
2023-01-12T05:10:54.907Z,11.90
2023-01-12T05:13:22.288Z,13.10
2023-01-12T05:15:49.243Z,11.85
2023-01-12T05:18:16.125Z,14.63
2023-01-12T05:20:42.990Z,14.75
2023-01-12T05:23:09.853Z,13.23
2023-01-12T05:25:36.753Z,12.60
2023-01-12T05:28:03.850Z,13.85
2023-01-12T05:30:31.981Z,14.77
2023-01-12T05:32:59.389Z,15.60
2023-01-12T05:35:26.247Z,12.43
2023-01-12T05:37:56.193Z,12.88
2023-01-12T05:40:23.123Z,12.70
2023-01-12T05:43:11.472Z,15.93
2023-01-12T05:45:38.583Z,14.32
2023-01-12T05:48:05.780Z,12.82
2023-01-12T05:50:32.827Z,12.38
2023-01-12T05:52:59.750Z,16.02
2023-01-12T05:55:26.573Z,11.48
2023-01-12T05:57:53.464Z,14.55
2023-01-12T06:00:20.681Z,12.23
2023-01-12T06:02:47.526Z,13.38
2023-01-12T06:05:14.461Z,14.35
2023-01-12T06:07:41.399Z,12.02
2023-01-12T06:10:08.809Z,14.10
2023-01-12T06:12:54.089Z,24.73
2023-01-12T06:15:20.999Z,18.67
2023-01-12T06:17:48.172Z,13.98
2023-01-12T06:20:17.277Z,15.48
2023-01-12T06:22:44.836Z,13.50
2023-01-12T06:25:12.329Z,14.60
2023-01-12T06:27:39.308Z,13.18
2023-01-12T06:30:08.064Z,11.73
2023-01-12T06:32:35.475Z,16.90
2023-01-12T06:35:14.166Z,13.52
2023-01-12T06:37:45.422Z,12.35
2023-01-12T06:40:12.930Z,14.80
2023-01-12T06:42:42.746Z,15.73
2023-01-12T06:45:10.596Z,14.25
2023-01-12T06:47:52.185Z,13.95
2023-01-12T06:50:19.304Z,17.98
2023-01-12T06:52:46.193Z,12.85
2023-01-12T06:55:13.067Z,11.55
2023-01-12T06:57:40.137Z,14.00
2023-01-12T07:00:08.002Z,16.30
2023-01-12T07:02:35.012Z,13.07
2023-01-12T07:05:01.881Z,12.95
2023-01-12T07:07:28.783Z,15.52
2023-01-12T07:09:55.608Z,11.07
2023-01-12T07:12:22.548Z,11.93
2023-01-12T07:14:49.487Z,13.95
2023-01-12T07:17:16.535Z,15.73
2023-01-12T07:19:43.499Z,16.98
2023-01-12T07:22:10.420Z,15.85
2023-01-12T07:24:37.270Z,16.52
2023-01-12T07:27:04.344Z,16.95
2023-01-12T07:29:31.211Z,15.15
2023-01-12T07:31:58.124Z,13.25
2023-01-12T07:34:25.010Z,12.68
2023-01-12T07:36:52.212Z,15.55
2023-01-12T07:39:19.264Z,21.25
2023-01-12T07:42:04.678Z,28.55
2023-01-12T07:44:31.524Z,30.73
2023-01-12T07:46:59.737Z,36.33
2023-01-12T07:49:27.096Z,34.13
2023-01-12T07:51:54.944Z,33.63
2023-01-12T07:54:22.767Z,37.28
2023-01-12T07:56:49.665Z,28.77
2023-01-12T07:59:17.717Z,31.30
2023-01-12T08:01:44.677Z,33.92
2023-01-12T08:04:11.547Z,35.53
2023-01-12T08:06:38.388Z,46.40
2023-01-12T08:09:05.570Z,45.78
2023-01-12T08:11:32.568Z,42.75
2023-01-12T08:13:59.466Z,40.55
2023-01-12T08:16:33.479Z,38.72
2023-01-12T08:19:09.760Z,29.58
2023-01-12T08:21:46.176Z,29.58
2023-01-12T08:24:21.386Z,23.70
2023-01-12T08:26:50.940Z,20.40
2023-01-12T08:29:29.794Z,20.88
2023-01-12T08:32:03.645Z,20.50
2023-01-12T08:34:32.514Z,27.52
2023-01-12T08:37:02.280Z,24.70
2023-01-12T08:39:29.655Z,25.15
2023-01-12T08:41:56.525Z,20.63
2023-01-12T08:44:23.567Z,21.80
2023-01-12T08:46:53.136Z,23.50
2023-01-12T08:49:24.289Z,17.95
2023-01-12T08:51:51.681Z,19.90
2023-01-12T08:54:20.524Z,19.75
2023-01-12T08:56:47.618Z,20.50
2023-01-12T08:59:14.602Z,21.85
2023-01-12T09:01:41.831Z,25.45
2023-01-12T09:04:09.067Z,25.90
2023-01-12T09:06:43.208Z,38.25
2023-01-12T09:09:16.875Z,53.78
2023-01-12T09:11:44.244Z,65.75
2023-01-12T09:14:12.356Z,53.22
2023-01-12T09:16:39.524Z,42.67
2023-01-12T09:19:06.815Z,38.22
2023-01-12T09:21:36.221Z,37.33
2023-01-12T09:24:03.101Z,34.08
2023-01-12T09:26:32.243Z,33.38
2023-01-12T09:29:00.497Z,29.83
2023-01-12T09:31:29.283Z,29.52
2023-01-12T09:33:56.839Z,27.65
2023-01-12T09:36:26.560Z,31.17
2023-01-12T09:38:53.718Z,29.60
2023-01-12T09:41:48.177Z,24.90
2023-01-12T09:44:47.943Z,29.23
2023-01-12T09:47:37.309Z,26.60
2023-01-12T09:50:11.001Z,25.90
2023-01-12T09:52:52.258Z,27.38
2023-01-12T09:55:22.184Z,27.88
2023-01-12T09:58:13.798Z,26.58
2023-01-12T10:00:40.633Z,29.80
2023-01-12T10:03:10.279Z,29.42
2023-01-12T10:05:54.717Z,38.13
2023-01-12T10:08:41.287Z,31.60
2023-01-12T10:11:37.082Z,34.38
2023-01-12T10:14:31.353Z,26.52
2023-01-12T10:17:10.033Z,41.28
2023-01-12T10:20:03.163Z,34.15
2023-01-12T10:22:47.556Z,29.42
2023-01-12T10:25:26.543Z,28.42
2023-01-12T10:27:56.915Z,32.10
2023-01-12T10:30:26.541Z,34.47
2023-01-12T10:32:53.443Z,33.70
2023-01-12T10:35:23.218Z,31.20
2023-01-12T10:37:58.840Z,35.00
2023-01-12T10:40:33.222Z,38.22
2023-01-12T10:43:32.360Z,38.00
2023-01-12T10:46:11.118Z,29.88
2023-01-12T10:48:41.061Z,36.92
2023-01-12T10:51:28.491Z,32.30
2023-01-12T10:54:10.611Z,36.30
2023-01-12T10:56:44.740Z,32.65
2023-01-12T10:59:19.670Z,32.45
2023-01-12T11:02:03.813Z,29.90
2023-01-12T11:04:30.878Z,35.13
2023-01-12T11:07:19.465Z,29.48
2023-01-12T11:09:46.605Z,30.98
2023-01-12T11:12:35.630Z,30.88
2023-01-12T11:15:15.291Z,29.52
2023-01-12T11:18:23.831Z,25.98
2023-01-12T11:21:01.228Z,25.80
2023-01-12T11:23:39.135Z,29.70
2023-01-12T11:26:26.948Z,31.50
2023-01-12T11:28:59.008Z,32.85
2023-01-12T11:31:34.760Z,34.63
2023-01-12T11:34:19.554Z,27.38
2023-01-12T11:36:49.527Z,23.50
2023-01-12T11:39:22.258Z,27.73
2023-01-12T11:42:20.229Z,30.05
2023-01-12T11:45:01.692Z,31.23
2023-01-12T11:47:34.490Z,40.78
2023-01-12T11:50:07.884Z,47.85
2023-01-12T11:52:35.292Z,49.20
2023-01-12T11:55:02.914Z,51.95
2023-01-12T11:57:53.940Z,51.95
2023-01-12T12:00:44.026Z,54.60
2023-01-12T12:03:31.400Z,56.28
2023-01-12T12:06:30.328Z,44.53
2023-01-12T12:09:05.097Z,44.40
2023-01-12T12:11:45.603Z,44.92
2023-01-12T12:14:18.459Z,43.08
2023-01-12T12:17:11.247Z,37.45
2023-01-12T12:19:49.113Z,32.17
2023-01-12T12:22:36.140Z,28.80
2023-01-12T12:25:07.582Z,33.70
2023-01-12T12:27:47.712Z,31.90
2023-01-12T12:30:39.018Z,33.65
2023-01-12T12:33:30.132Z,36.72
2023-01-12T12:36:02.738Z,31.30
2023-01-12T12:38:55.343Z,32.70
2023-01-12T12:41:59.582Z,42.78
2023-01-12T12:45:14.716Z,29.42
2023-01-12T12:48:06.138Z,28.52
2023-01-12T12:50:57.070Z,33.13
2023-01-12T12:53:33.308Z,28.80
2023-01-12T12:56:13.022Z,25.27
2023-01-12T12:58:55.732Z,34.72
2023-01-12T13:01:25.628Z,32.38
2023-01-12T13:03:56.412Z,30.20
2023-01-12T13:06:28.275Z,31.58
2023-01-12T13:09:02.653Z,32.20
2023-01-12T13:11:50.466Z,41.20
2023-01-12T13:14:32.338Z,35.03
2023-01-12T13:19:47.885Z,33.45
2023-01-12T13:22:18.018Z,34.63
2023-01-12T13:24:46.038Z,34.55
2023-01-12T13:27:48.664Z,34.47
2023-01-12T13:30:40.282Z,34.83
2023-01-12T13:33:27.776Z,40.65
2023-01-12T13:36:02.105Z,33.08
2023-01-12T13:38:39.038Z,33.60
2023-01-12T13:41:38.456Z,35.92
2023-01-12T13:44:39.414Z,28.50
2023-01-12T13:47:33.211Z,33.97
2023-01-12T13:50:02.190Z,37.17
2023-01-12T13:52:35.797Z,36.28
2023-01-12T13:55:04.745Z,39.38
2023-01-12T13:57:32.099Z,33.67
2023-01-12T14:00:11.283Z,37.25
2023-01-12T14:02:40.159Z,36.78
2023-01-12T14:05:22.283Z,30.60
2023-01-12T14:08:07.050Z,35.92
2023-01-12T14:10:39.033Z,38.83
2023-01-12T14:13:30.638Z,40.15
2023-01-12T14:16:20.317Z,37.80
2023-01-12T14:18:49.571Z,40.25
2023-01-12T14:21:31.788Z,33.63
2023-01-12T14:24:21.715Z,45.22
2023-01-12T14:26:48.820Z,33.15
2023-01-12T14:29:15.740Z,45.53
2023-01-12T14:31:45.163Z,36.65
2023-01-12T14:34:34.705Z,36.80
2023-01-12T14:37:04.748Z,41.17
2023-01-12T14:39:41.025Z,37.60
2023-01-12T14:42:35.708Z,35.75
2023-01-12T14:45:21.390Z,39.10
2023-01-12T14:47:48.247Z,39.50
2023-01-12T14:50:19.249Z,39.30
2023-01-12T14:52:47.787Z,42.35
2023-01-12T14:55:24.833Z,56.33
2023-01-12T14:57:56.960Z,41.80
2023-01-12T15:00:29.962Z,36.85
2023-01-12T15:03:01.958Z,61.10
2023-01-12T15:05:32.742Z,48.28
2023-01-12T15:08:03.625Z,44.87
2023-01-12T15:10:30.462Z,42.97
2023-01-12T15:13:11.659Z,40.00
2023-01-12T15:16:04.790Z,49.75
2023-01-12T15:18:51.229Z,42.03
2023-01-12T15:21:38.347Z,38.13
2023-01-12T15:24:33.780Z,44.10
2023-01-12T15:27:06.282Z,41.92
2023-01-12T15:29:33.793Z,39.88
2023-01-12T15:32:01.744Z,42.08
2023-01-12T15:34:28.841Z,39.72
2023-01-12T15:36:55.738Z,40.58
2023-01-12T15:39:22.630Z,40.45
2023-01-12T15:42:08.741Z,45.70
2023-01-12T15:44:38.240Z,40.72
2023-01-12T15:47:07.421Z,48.47
2023-01-12T15:49:34.359Z,46.38
2023-01-12T15:52:01.238Z,43.25
2023-01-12T15:54:28.123Z,41.03
2023-01-12T15:56:57.358Z,41.45
2023-01-12T15:59:24.195Z,40.58
2023-01-12T16:01:51.201Z,47.05
2023-01-12T16:07:09.929Z,41.63
2023-01-12T16:09:37.058Z,41.65
2023-01-12T16:12:04.112Z,50.83
2023-01-12T16:14:30.919Z,43.38
2023-01-12T16:16:57.743Z,39.95
2023-01-12T16:19:24.723Z,37.50
2023-01-12T16:21:55.258Z,42.80
2023-01-12T16:24:24.217Z,42.55
2023-01-12T16:26:51.152Z,44.25
2023-01-12T16:29:19.276Z,40.95
2023-01-12T16:31:46.217Z,43.67
2023-01-12T16:34:13.081Z,42.45
2023-01-12T16:36:40.019Z,38.75
2023-01-12T16:39:06.930Z,38.78
2023-01-12T16:41:33.740Z,42.55
2023-01-12T16:44:00.532Z,52.63
2023-01-12T16:46:27.378Z,44.08
2023-01-12T16:48:55.395Z,52.97
2023-01-12T16:51:22.788Z,51.70
2023-01-12T16:53:51.459Z,42.42
2023-01-12T16:56:18.374Z,45.90
2023-01-12T16:58:48.720Z,46.30
2023-01-12T17:01:18.805Z,47.70
2023-01-12T17:03:45.810Z,38.17
2023-01-12T17:06:20.203Z,42.70
2023-01-12T17:08:47.136Z,51.05
2023-01-12T17:11:19.821Z,42.33
2023-01-12T17:13:55.503Z,46.55
2023-01-12T17:16:24.191Z,41.88
2023-01-12T17:18:51.245Z,46.20
2023-01-12T17:21:19.987Z,45.17
2023-01-12T17:23:47.662Z,39.85
2023-01-12T17:26:18.016Z,47.75
2023-01-12T17:28:46.469Z,41.60
2023-01-12T17:31:16.961Z,43.50
2023-01-12T17:33:44.666Z,44.67
2023-01-12T17:36:12.742Z,44.67
2023-01-12T17:38:40.160Z,53.45
2023-01-12T17:41:32.028Z,43.67
2023-01-12T17:44:00.347Z,43.17
2023-01-12T17:46:27.268Z,42.80
2023-01-12T17:48:54.140Z,42.35
2023-01-12T17:51:20.978Z,45.78
2023-01-12T17:53:47.887Z,44.22
2023-01-12T17:56:14.726Z,44.42
2023-01-12T17:58:41.583Z,43.42
2023-01-12T18:01:12.910Z,50.55
2023-01-12T18:03:40.021Z,47.13
2023-01-12T18:06:12.036Z,47.25
2023-01-12T18:08:49.186Z,44.60
2023-01-12T18:11:16.981Z,43.22
2023-01-12T18:13:44.361Z,44.85
2023-01-12T18:16:13.399Z,41.97
2023-01-12T18:18:42.152Z,41.58
2023-01-12T18:21:12.545Z,43.95
2023-01-12T18:23:39.520Z,42.72
2023-01-12T18:26:11.689Z,45.47
2023-01-12T18:28:38.581Z,46.40
2023-01-12T18:31:08.677Z,40.55
2023-01-12T18:33:35.959Z,38.00
2023-01-12T18:36:21.368Z,40.10
2023-01-12T18:38:51.483Z,46.70
2023-01-12T18:41:38.450Z,40.05
2023-01-12T18:44:06.881Z,43.22
2023-01-12T18:46:54.143Z,48.03
2023-01-12T18:49:25.885Z,40.70
2023-01-12T18:54:45.207Z,42.05
2023-01-12T18:57:14.597Z,51.20
2023-01-12T18:59:42.190Z,38.95
2023-01-12T19:02:12.024Z,49.70
2023-01-12T19:04:51.527Z,42.20
2023-01-12T19:07:29.024Z,44.45
2023-01-12T19:09:56.950Z,45.55
2023-01-12T19:12:24.147Z,43.72
2023-01-12T19:15:09.747Z,46.13
2023-01-12T19:17:40.404Z,40.95
2023-01-12T19:20:14.440Z,41.28
2023-01-12T19:22:59.760Z,42.17
2023-01-12T19:25:45.514Z,42.67
2023-01-12T19:28:40.715Z,45.28
2023-01-12T19:31:11.819Z,40.92
2023-01-12T19:33:39.564Z,39.95
2023-01-12T19:36:08.348Z,43.58
2023-01-12T19:38:38.595Z,34.55
2023-01-12T19:41:29.640Z,41.97
2023-01-12T19:43:56.515Z,37.40
2023-01-12T19:46:23.341Z,38.13
2023-01-12T19:48:50.258Z,38.67
2023-01-12T19:51:17.135Z,41.72
2023-01-12T19:53:44.007Z,38.10
2023-01-12T19:56:12.680Z,43.75
2023-01-12T19:58:39.597Z,39.85
2023-01-12T20:01:07.046Z,40.45
2023-01-12T20:03:34.848Z,45.20
2023-01-12T20:06:06.265Z,44.78
2023-01-12T20:08:33.474Z,39.80
2023-01-12T20:11:03.955Z,41.08
2023-01-12T20:13:32.807Z,43.60
2023-01-12T20:16:04.806Z,45.90
2023-01-12T20:18:31.749Z,43.72
2023-01-12T20:21:00.530Z,42.75
2023-01-12T20:23:27.499Z,40.65
2023-01-12T20:25:54.489Z,44.58
2023-01-12T20:28:21.405Z,39.25
2023-01-12T20:30:48.246Z,51.55
2023-01-12T20:33:15.151Z,50.35
2023-01-12T20:35:47.811Z,49.83
2023-01-12T20:38:16.936Z,46.30
2023-01-12T20:40:45.382Z,42.55
2023-01-12T20:43:12.581Z,41.53
2023-01-12T20:45:44.105Z,49.47
2023-01-12T20:48:13.716Z,50.45
2023-01-12T20:50:45.533Z,40.78
2023-01-12T20:53:13.662Z,42.85
2023-01-12T20:55:53.233Z,44.58
2023-01-12T20:58:20.153Z,49.92
2023-01-12T21:00:47.517Z,41.97
2023-01-12T21:03:14.596Z,50.22
2023-01-12T21:05:46.372Z,50.08
2023-01-12T21:10:47.307Z,44.15
2023-01-12T21:13:14.215Z,46.13
2023-01-12T21:15:41.429Z,48.45
2023-01-12T21:18:08.303Z,38.05
2023-01-12T21:20:35.347Z,41.47
2023-01-12T21:23:02.217Z,44.05
2023-01-12T21:25:29.344Z,35.58
2023-01-12T21:27:56.157Z,40.72
2023-01-12T21:30:23.019Z,46.63
2023-01-12T21:32:50.349Z,39.75
2023-01-12T21:35:17.948Z,38.58
2023-01-12T21:37:44.793Z,44.08
2023-01-12T21:40:14.270Z,40.03
2023-01-12T21:42:59.584Z,45.70
2023-01-12T21:45:26.434Z,36.35
2023-01-12T21:47:55.428Z,39.50
2023-01-12T21:50:23.400Z,43.75
2023-01-12T21:52:50.226Z,44.17
2023-01-12T21:55:19.444Z,35.85
2023-01-12T21:57:47.787Z,34.90
2023-01-12T22:00:15.048Z,36.22
2023-01-12T22:02:42.992Z,37.47
2023-01-12T22:05:11.092Z,37.83
2023-01-12T22:07:37.951Z,39.42
2023-01-12T22:10:20.167Z,46.70
2023-01-12T22:12:48.904Z,37.38
2023-01-12T22:15:15.919Z,39.45
2023-01-12T22:17:42.985Z,35.22
2023-01-12T22:20:10.902Z,37.67
2023-01-12T22:22:38.803Z,39.45
2023-01-12T22:25:07.953Z,31.55
2023-01-12T22:27:35.479Z,34.50
2023-01-12T22:30:04.269Z,33.75
2023-01-12T22:32:31.765Z,35.92
2023-01-12T22:35:01.750Z,32.70
2023-01-12T22:37:29.555Z,34.50
2023-01-12T22:39:56.664Z,34.60
2023-01-12T22:42:42.775Z,35.42
2023-01-12T22:45:10.225Z,39.90
2023-01-12T22:47:47.749Z,34.35
2023-01-12T22:50:15.402Z,33.50
2023-01-12T22:52:42.259Z,33.75
2023-01-12T22:55:09.690Z,35.10
2023-01-12T22:57:36.539Z,33.80
2023-01-12T23:00:04.404Z,31.58
2023-01-12T23:02:50.172Z,32.45
2023-01-12T23:05:17.927Z,40.80
2023-01-12T23:07:44.785Z,31.27
2023-01-12T23:10:11.744Z,28.85
2023-01-12T23:12:38.693Z,34.40
2023-01-12T23:15:06.104Z,39.33
2023-01-12T23:17:33.650Z,33.67
2023-01-12T23:20:00.549Z,39.10
2023-01-12T23:22:30.510Z,36.55
2023-01-12T23:24:57.360Z,33.20
2023-01-12T23:27:24.241Z,30.65
2023-01-12T23:29:51.100Z,37.25
2023-01-12T23:32:18.167Z,38.35
2023-01-12T23:34:45.033Z,26.50
2023-01-12T23:37:11.882Z,33.20
2023-01-12T23:39:38.758Z,30.55
2023-01-12T23:42:05.698Z,30.25
2023-01-12T23:44:32.603Z,31.17
2023-01-12T23:47:03.015Z,29.65
2023-01-12T23:49:29.913Z,29.08
2023-01-12T23:51:56.781Z,31.33
2023-01-12T23:54:23.695Z,36.28
2023-01-12T23:56:53.685Z,29.13
2023-01-12T23:59:20.596Z,31.83
